Time;durP1;ratioP1;P1;durP2;ratioP2;P2;SDS_P1;SDS_P2;PMS_P1;PMS_P2;Temp;Humidity;BMP_temperature;BMP_pressure;BME280_temperature;BME280_humidity;BME280_pressure;Samples;Min_cycle;Max_cycle;Signal;HPM_P1;HPM_P2
2021/08/03 00:04:10;;;;;;;1.33;1.00;;;;;;;;;;10462404;28;20083;-80
2021/08/03 00:09:11;;;;;;;1.33;1.00;;;;;;;;;;10455963;28;20080;-80
2021/08/03 00:14:11;;;;;;;4.03;1.00;;;;;;;;;;10440189;28;20032;-79
2021/08/03 00:19:12;;;;;;;0.88;0.88;;;;;;;;;;10461523;28;20039;-79
2021/08/03 00:24:12;;;;;;;2.73;0.97;;;;;;;;;;10462230;28;20029;-79
2021/08/03 00:29:14;;;;;;;0.80;0.80;;;;;;;;;;10461404;28;20111;-80
2021/08/03 00:34:15;;;;;;;0.98;0.93;;;;;;;;;;10462265;28;20462;-80
2021/08/03 00:39:15;;;;;;;2.35;1.10;;;;;;;;;;10425145;28;20079;-80
2021/08/03 00:44:15;;;;;;;1.53;1.00;;;;;;;;;;10461370;28;20037;-80
2021/08/03 00:49:16;;;;;;;1.67;1.00;;;;;;;;;;10440939;28;20084;-80
2021/08/03 00:54:16;;;;;;;2.40;1.10;;;;;;;;;;10440764;28;20031;-79
2021/08/03 00:59:17;;;;;;;0.73;0.73;;;;;;;;;;10444513;28;20427;-80
2021/08/03 01:04:17;;;;;;;1.37;1.10;;;;;;;;;;10452731;28;20087;-79
2021/08/03 01:09:21;;;;;;;1.90;0.90;;;;;;;;;;10452592;28;20069;-80
2021/08/03 01:14:35;;;;;;;1.20;1.10;;;;;;;;;;10458112;28;20079;-80
2021/08/03 01:19:53;;;;;;;0.98;0.88;;;;;;;;;;10451053;28;20037;-80
2021/08/03 01:25:08;;;;;;;0.70;0.70;;;;;;;;;;10446213;28;20041;-79
2021/08/03 01:30:08;;;;;;;1.00;0.90;;;;;;;;;;10448446;28;20040;-80
2021/08/03 01:35:10;;;;;;;1.30;1.00;;;;;;;;;;10459362;28;20025;-80
2021/08/03 01:40:13;;;;;;;1.42;1.02;;;;;;;;;;10458732;28;20040;-79
2021/08/03 01:45:14;;;;;;;1.08;0.98;;;;;;;;;;10458635;28;20035;-79
2021/08/03 01:50:14;;;;;;;1.55;0.80;;;;;;;;;;10444722;28;20129;-79
2021/08/03 01:55:15;;;;;;;1.83;1.20;;;;;;;;;;10449032;28;20040;-79
2021/08/03 02:00:16;;;;;;;0.93;0.90;;;;;;;;;;10449614;28;20383;-79
2021/08/03 02:05:16;;;;;;;0.90;0.90;;;;;;;;;;10441019;28;20040;-79
2021/08/03 02:10:20;;;;;;;0.98;0.93;;;;;;;;;;10456121;28;20386;-79
2021/08/03 02:15:20;;;;;;;1.85;0.80;;;;;;;;;;10452394;28;20131;-79
2021/08/03 02:20:22;;;;;;;0.90;0.90;;;;;;;;;;10456029;28;20108;-79
2021/08/03 02:25:23;;;;;;;1.25;0.90;;;;;;;;;;10451230;28;20037;-79
2021/08/03 02:30:24;;;;;;;1.10;1.00;;;;;;;;;;10453799;28;20055;-79
2021/08/03 02:35:28;;;;;;;0.70;0.70;;;;;;;;;;10448863;28;20108;-80
2021/08/03 02:40:29;;;;;;;1.80;1.23;;;;;;;;;;10455591;28;20506;-79
2021/08/03 02:45:30;;;;;;;1.23;1.13;;;;;;;;;;10447815;28;20124;-80
2021/08/03 02:50:31;;;;;;;1.10;1.02;;;;;;;;;;10457021;28;20035;-79
2021/08/03 02:55:39;;;;;;;1.00;0.90;;;;;;;;;;10455325;28;20477;-79
2021/08/03 03:00:40;;;;;;;1.48;0.90;;;;;;;;;;10455539;28;20202;-79
2021/08/03 03:05:41;;;;;;;2.33;0.90;;;;;;;;;;10455690;28;20032;-79
2021/08/03 03:10:49;;;;;;;1.20;0.90;;;;;;;;;;10454922;28;20043;-80
2021/08/03 03:15:50;;;;;;;1.40;1.00;;;;;;;;;;10454209;28;20484;-79
2021/08/03 03:20:51;;;;;;;1.20;0.80;;;;;;;;;;10454501;28;20033;-79
2021/08/03 03:25:52;;;;;;;1.08;1.00;;;;;;;;;;10454068;28;20036;-79
2021/08/03 03:30:53;;;;;;;1.35;0.90;;;;;;;;;;10457322;28;20025;-79
2021/08/03 03:35:58;;;;;;;1.23;1.05;;;;;;;;;;10458376;28;20501;-78
2021/08/03 03:40:59;;;;;;;1.10;1.02;;;;;;;;;;10462204;28;20112;-79
2021/08/03 03:46:10;;;;;;;0.77;0.77;;;;;;;;;;10460869;28;20538;-79
2021/08/03 03:51:15;;;;;;;0.75;0.75;;;;;;;;;;10462411;28;20344;-79
2021/08/03 03:56:17;;;;;;;0.80;0.80;;;;;;;;;;10452852;28;20028;-79
2021/08/03 04:01:23;;;;;;;0.85;0.82;;;;;;;;;;10463165;28;20065;-79
2021/08/03 04:06:25;;;;;;;1.10;0.73;;;;;;;;;;10454309;28;20454;-79
2021/08/03 04:11:25;;;;;;;2.15;0.73;;;;;;;;;;10425728;23;20058;-79
2021/08/03 04:16:26;;;;;;;0.93;0.90;;;;;;;;;;10420176;28;20029;-79
2021/08/03 04:21:26;;;;;;;1.00;1.00;;;;;;;;;;10420765;28;20087;-80
2021/08/03 04:26:26;;;;;;;1.27;0.97;;;;;;;;;;10420732;28;20455;-79
2021/08/03 04:31:27;;;;;;;0.77;0.77;;;;;;;;;;10419919;28;20091;-80
2021/08/03 04:36:27;;;;;;;0.90;0.70;;;;;;;;;;10419922;28;20026;-79
2021/08/03 04:41:28;;;;;;;0.70;0.70;;;;;;;;;;10417677;28;20033;-79
2021/08/03 04:46:29;;;;;;;4.30;0.80;;;;;;;;;;10420794;28;20033;-79
2021/08/03 04:51:29;;;;;;;0.70;0.70;;;;;;;;;;10419742;28;20033;-79
2021/08/03 04:56:30;;;;;;;0.77;0.77;;;;;;;;;;10420072;28;20057;-79
2021/08/03 05:01:30;;;;;;;1.50;0.88;;;;;;;;;;10420117;28;20466;-79
2021/08/03 05:06:31;;;;;;;0.93;0.83;;;;;;;;;;10418924;28;20037;-79
2021/08/03 05:11:31;;;;;;;0.73;0.73;;;;;;;;;;10418501;28;20073;-80
2021/08/03 05:16:32;;;;;;;0.70;0.70;;;;;;;;;;10419154;28;20033;-80
2021/08/03 05:21:32;;;;;;;0.87;0.60;;;;;;;;;;10418236;28;20495;-79
2021/08/03 05:26:32;;;;;;;2.33;0.97;;;;;;;;;;10417767;28;20029;-79
2021/08/03 05:31:33;;;;;;;3.47;1.20;;;;;;;;;;10417426;28;20464;-80
2021/08/03 05:36:33;;;;;;;1.73;1.00;;;;;;;;;;10417586;28;20449;-80
2021/08/03 05:41:34;;;;;;;1.33;1.00;;;;;;;;;;10416534;28;20491;-80
2021/08/03 05:46:34;;;;;;;3.47;1.30;;;;;;;;;;10417716;28;20029;-79
2021/08/03 05:51:34;;;;;;;2.53;1.20;;;;;;;;;;10417262;28;20116;-78
2021/08/03 05:56:37;;;;;;;5.70;1.47;;;;;;;;;;10417152;28;20075;-78
2021/08/03 06:01:37;;;;;;;15.25;1.80;;;;;;;;;;10416497;28;20037;-78
2021/08/03 06:06:40;;;;;;;3.67;1.60;;;;;;;;;;10415666;28;20034;-79
2021/08/03 06:11:45;;;;;;;8.98;1.95;;;;;;;;;;10411842;28;20030;-78
2021/08/03 06:16:51;;;;;;;3.35;1.40;;;;;;;;;;10414262;28;20394;-78
2021/08/03 06:21:55;;;;;;;2.63;1.27;;;;;;;;;;10416476;28;20038;-78
2021/08/03 06:26:56;;;;;;;1.75;1.20;;;;;;;;;;10415847;28;20141;-79
2021/08/03 06:31:57;;;;;;;2.25;1.23;;;;;;;;;;10415932;28;20066;-79
2021/08/03 06:36:57;;;;;;;3.97;1.20;;;;;;;;;;10415559;28;20056;-79
2021/08/03 06:42:15;;;;;;;2.50;1.30;;;;;;;;;;10415137;28;20071;-78
2021/08/03 06:47:20;;;;;;;3.33;1.20;;;;;;;;;;10404365;28;20052;-78
2021/08/03 06:52:21;;;;;;;4.85;1.40;;;;;;;;;;10413207;28;20033;-78
2021/08/03 06:57:22;;;;;;;2.20;1.17;;;;;;;;;;10415322;28;20113;-78
2021/08/03 07:02:30;;;;;;;2.97;1.38;;;;;;;;;;10415874;28;20033;-79
2021/08/03 07:07:30;;;;;;;4.60;1.25;;;;;;;;;;10414317;28;20041;-79
2021/08/03 07:12:31;;;;;;;1.98;1.13;;;;;;;;;;10413229;28;20033;-80
2021/08/03 07:17:31;;;;;;;4.80;1.20;;;;;;;;;;10414040;28;20025;-80
2021/08/03 07:22:35;;;;;;;1.15;0.93;;;;;;;;;;10413249;28;20061;-80
2021/08/03 07:27:36;;;;;;;1.08;0.98;;;;;;;;;;10414673;28;20034;-80
2021/08/03 07:32:37;;;;;;;3.67;1.08;;;;;;;;;;10413904;28;20026;-80
2021/08/03 07:37:37;;;;;;;3.83;1.30;;;;;;;;;;10414056;28;20057;-80
2021/08/03 07:42:38;;;;;;;2.03;1.10;;;;;;;;;;10412869;28;20068;-80
2021/08/03 07:47:38;;;;;;;2.08;1.10;;;;;;;;;;10413447;28;20033;-80
2021/08/03 07:52:39;;;;;;;2.17;1.27;;;;;;;;;;10412918;28;20460;-80
2021/08/03 07:57:39;;;;;;;2.57;1.07;;;;;;;;;;10413979;28;20523;-79
2021/08/03 08:02:39;;;;;;;2.90;1.20;;;;;;;;;;10414023;28;20038;-79
2021/08/03 08:07:40;;;;;;;2.13;1.10;;;;;;;;;;10413681;28;20128;-79
2021/08/03 08:12:40;;;;;;;1.25;1.10;;;;;;;;;;10413893;28;20029;-79
2021/08/03 08:17:41;;;;;;;3.00;1.20;;;;;;;;;;10415944;28;20029;-79
2021/08/03 08:22:42;;;;;;;1.93;1.20;;;;;;;;;;10420219;28;20037;-80
2021/08/03 08:27:43;;;;;;;6.75;1.00;;;;;;;;;;10419559;28;20490;-80
2021/08/03 08:32:43;;;;;;;3.33;1.40;;;;;;;;;;10420279;28;20026;-80
2021/08/03 08:37:44;;;;;;;5.22;1.13;;;;;;;;;;10420244;28;20033;-79
2021/08/03 08:42:45;;;;;;;3.93;1.20;;;;;;;;;;10419803;28;20029;-79
2021/08/03 08:47:47;;;;;;;3.75;1.27;;;;;;;;;;10416576;28;20025;-78
2021/08/03 08:52:53;;;;;;;5.45;1.30;;;;;;;;;;10411468;28;20029;-79
2021/08/03 08:57:54;;;;;;;3.97;1.40;;;;;;;;;;10419870;28;20120;-79
2021/08/03 09:02:56;;;;;;;2.50;1.43;;;;;;;;;;10418737;28;20116;-79
2021/08/03 09:07:58;;;;;;;4.47;1.17;;;;;;;;;;10405813;28;20473;-79
2021/08/03 09:12:59;;;;;;;3.78;1.33;;;;;;;;;;10418082;28;20091;-79
2021/08/03 09:18:39;;;;;;;4.45;1.40;;;;;;;;;;10418997;28;20352;-79
2021/08/03 09:23:41;;;;;;;5.60;2.47;;;;;;;;;;10356547;28;20535;-79
2021/08/03 09:29:00;;;;;;;5.50;1.30;;;;;;;;;;10372496;28;20065;-79
2021/08/03 09:34:12;;;;;;;2.60;1.50;;;;;;;;;;10372055;28;20048;-79
2021/08/03 09:39:42;;;;;;;4.97;1.40;;;;;;;;;;10372321;28;20042;-79
2021/08/03 09:44:52;;;;;;;3.33;1.27;;;;;;;;;;10371066;28;20058;-79
2021/08/03 09:49:56;;;;;;;2.10;1.30;;;;;;;;;;10355842;28;20057;-79
2021/08/03 09:55:17;;;;;;;4.82;1.50;;;;;;;;;;10410786;28;20045;-79
2021/08/03 10:00:23;;;;;;;4.35;1.40;;;;;;;;;;10416993;28;20028;-79
2021/08/03 10:05:24;;;;;;;3.92;1.45;;;;;;;;;;10416785;28;20164;-79
2021/08/03 10:10:25;;;;;;;3.00;1.50;;;;;;;;;;10415385;28;20121;-79
2021/08/03 10:15:25;;;;;;;4.57;1.67;;;;;;;;;;10416437;28;20037;-79
2021/08/03 10:20:26;;;;;;;2.00;1.40;;;;;;;;;;10416038;28;20035;-78
2021/08/03 10:25:36;;;;;;;2.07;1.13;;;;;;;;;;10415517;28;20029;-78
2021/08/03 10:30:37;;;;;;;2.38;1.30;;;;;;;;;;10415145;28;20022;-78
2021/08/03 10:35:42;;;;;;;3.13;1.60;;;;;;;;;;10416247;28;20451;-79
2021/08/03 10:40:46;;;;;;;3.20;1.50;;;;;;;;;;10415046;28;20021;-79
2021/08/03 10:45:49;;;;;;;2.20;1.23;;;;;;;;;;10415953;28;20038;-79
2021/08/03 10:50:49;;;;;;;1.73;1.20;;;;;;;;;;10414073;28;20041;-79
2021/08/03 10:55:59;;;;;;;3.00;1.40;;;;;;;;;;10415520;28;20025;-78
2021/08/03 11:01:01;;;;;;;2.78;1.50;;;;;;;;;;10415027;28;20044;-79
2021/08/03 11:06:05;;;;;;;3.00;1.60;;;;;;;;;;10415038;28;20109;-79
2021/08/03 11:11:12;;;;;;;2.55;1.55;;;;;;;;;;10415452;28;20136;-78
2021/08/03 11:16:18;;;;;;;2.45;1.38;;;;;;;;;;10414228;28;20356;-78
2021/08/03 11:21:21;;;;;;;2.75;1.50;;;;;;;;;;10404241;28;20048;-79
2021/08/03 11:26:22;;;;;;;3.85;1.50;;;;;;;;;;10411549;28;20038;-79
2021/08/03 11:31:37;;;;;;;2.05;1.65;;;;;;;;;;10412093;28;20061;-78
2021/08/03 11:36:37;;;;;;;3.38;1.63;;;;;;;;;;10409039;28;20021;-78
2021/08/03 11:41:48;;;;;;;3.75;1.80;;;;;;;;;;10412184;28;20025;-78
2021/08/03 11:47:00;;;;;;;2.75;1.50;;;;;;;;;;10413558;28;20352;-78
2021/08/03 11:52:05;;;;;;;2.95;1.67;;;;;;;;;;10415799;28;20037;-77
2021/08/03 11:57:42;;;;;;;4.72;1.85;;;;;;;;;;10421490;28;20034;-78
2021/08/03 12:02:46;;;;;;;9.88;1.92;;;;;;;;;;10419858;28;20053;-78
2021/08/03 12:08:13;;;;;;;6.43;1.95;;;;;;;;;;10421343;28;20478;-78
2021/08/03 12:13:29;;;;;;;6.43;2.08;;;;;;;;;;10418236;28;20048;-78
2021/08/03 12:18:34;;;;;;;3.67;1.90;;;;;;;;;;10418861;28;20475;-78
2021/08/03 12:23:37;;;;;;;5.03;1.92;;;;;;;;;;10415416;28;20029;-78
2021/08/03 12:28:38;;;;;;;5.80;2.15;;;;;;;;;;10391104;28;20021;-78
2021/08/03 12:33:39;;;;;;;3.97;2.28;;;;;;;;;;10419124;28;20371;-78
2021/08/03 12:38:40;;;;;;;6.03;2.10;;;;;;;;;;10418673;28;20036;-79
2021/08/03 12:43:41;;;;;;;4.75;1.92;;;;;;;;;;10419195;28;20267;-78
2021/08/03 12:48:49;;;;;;;3.10;1.90;;;;;;;;;;10419682;28;20100;-78
2021/08/03 12:53:50;;;;;;;6.57;2.22;;;;;;;;;;10416037;28;20490;-78
2021/08/03 12:58:50;;;;;;;5.38;1.80;;;;;;;;;;10418151;28;20049;-78
2021/08/03 13:03:52;;;;;;;4.10;2.07;;;;;;;;;;10417939;28;20095;-78
2021/08/03 13:08:54;;;;;;;3.05;1.80;;;;;;;;;;10418247;28;20482;-78
2021/08/03 13:13:55;;;;;;;4.32;1.90;;;;;;;;;;10418395;28;20064;-79
2021/08/03 13:18:55;;;;;;;6.60;1.83;;;;;;;;;;10417731;28;20061;-78
2021/08/03 13:23:56;;;;;;;5.33;1.80;;;;;;;;;;10418503;28;20033;-78
2021/08/03 13:28:57;;;;;;;4.45;1.73;;;;;;;;;;10418506;28;20041;-78
2021/08/03 13:33:57;;;;;;;3.83;2.17;;;;;;;;;;10418324;28;20024;-78
2021/08/03 13:38:58;;;;;;;3.28;1.80;;;;;;;;;;10418197;28;20443;-78
2021/08/03 13:43:58;;;;;;;3.93;1.70;;;;;;;;;;10417987;28;20499;-78
2021/08/03 13:48:58;;;;;;;4.60;1.77;;;;;;;;;;10417980;28;20045;-78
2021/08/03 13:53:59;;;;;;;3.43;1.90;;;;;;;;;;10416748;28;20061;-78
2021/08/03 13:58:59;;;;;;;2.85;2.03;;;;;;;;;;10417452;28;20033;-78
2021/08/03 14:04:00;;;;;;;2.90;1.87;;;;;;;;;;10416764;28;20065;-78
2021/08/03 14:09:00;;;;;;;5.60;2.00;;;;;;;;;;10417165;28;20124;-78
2021/08/03 14:14:02;;;;;;;8.33;1.77;;;;;;;;;;10412393;28;20026;-79
2021/08/03 14:19:02;;;;;;;3.53;2.00;;;;;;;;;;10400034;28;20447;-78
2021/08/03 14:24:03;;;;;;;4.20;1.67;;;;;;;;;;10410685;28;20391;-78
2021/08/03 14:29:04;;;;;;;4.55;2.03;;;;;;;;;;10413116;28;20075;-78
2021/08/03 14:34:04;;;;;;;4.67;2.07;;;;;;;;;;10414445;28;20079;-78
2021/08/03 14:39:05;;;;;;;3.77;2.23;;;;;;;;;;10415459;28;20044;-79
2021/08/03 14:44:07;;;;;;;3.37;1.90;;;;;;;;;;10415061;28;20061;-79
2021/08/03 14:49:12;;;;;;;4.82;1.90;;;;;;;;;;10415406;28;20026;-79
2021/08/03 14:54:14;;;;;;;3.22;1.90;;;;;;;;;;10414044;28;20498;-78
2021/08/03 14:59:15;;;;;;;3.80;1.88;;;;;;;;;;10415269;28;20423;-78
2021/08/03 15:04:15;;;;;;;3.10;2.17;;;;;;;;;;10415257;28;20044;-79
2021/08/03 15:09:15;;;;;;;3.87;1.80;;;;;;;;;;10414982;28;20049;-79
2021/08/03 15:14:16;;;;;;;3.10;1.50;;;;;;;;;;10414282;28;20116;-79
2021/08/03 15:19:17;;;;;;;2.43;1.87;;;;;;;;;;10415237;28;20029;-80
2021/08/03 15:24:17;;;;;;;2.65;1.80;;;;;;;;;;10414885;28;20112;-79
2021/08/03 15:29:18;;;;;;;2.88;1.75;;;;;;;;;;10421033;28;20116;-79
2021/08/03 15:34:18;;;;;;;2.73;1.67;;;;;;;;;;10417098;28;20041;-81
2021/08/03 15:39:19;;;;;;;3.07;1.70;;;;;;;;;;10421858;28;20116;-80
2021/08/03 15:44:19;;;;;;;2.47;1.70;;;;;;;;;;10421096;28;20037;-81
2021/08/03 15:49:19;;;;;;;3.65;1.73;;;;;;;;;;10403095;28;20109;-81
2021/08/03 15:54:20;;;;;;;3.60;1.93;;;;;;;;;;10406411;28;20031;-81
2021/08/03 15:59:20;;;;;;;2.53;1.80;;;;;;;;;;10417761;28;20029;-80
2021/08/03 16:04:20;;;;;;;3.53;1.60;;;;;;;;;;10420373;28;20037;-81
2021/08/03 16:09:21;;;;;;;4.10;2.10;;;;;;;;;;10392208;23;20083;-81
2021/08/03 16:14:21;;;;;;;3.40;2.17;;;;;;;;;;10377846;28;20483;-81
2021/08/03 16:19:21;;;;;;;2.40;1.73;;;;;;;;;;10371029;28;20440;-81
2021/08/03 16:24:22;;;;;;;4.68;2.00;;;;;;;;;;10378213;28;20064;-80
2021/08/03 16:29:22;;;;;;;4.60;2.03;;;;;;;;;;10370249;28;20034;-81
2021/08/03 16:34:23;;;;;;;2.92;2.22;;;;;;;;;;10377575;28;20455;-81
2021/08/03 16:39:24;;;;;;;1.98;1.77;;;;;;;;;;10364687;28;20030;-81
2021/08/03 16:44:26;;;;;;;2.53;1.80;;;;;;;;;;10376051;28;20069;-81
2021/08/03 16:49:26;;;;;;;7.10;2.08;;;;;;;;;;10368504;28;20033;-81
2021/08/03 16:54:29;;;;;;;3.63;2.05;;;;;;;;;;10377111;28;20029;-81
2021/08/03 16:59:31;;;;;;;2.45;1.90;;;;;;;;;;10351729;28;20034;-81
2021/08/03 17:04:31;;;;;;;5.57;1.90;;;;;;;;;;10337260;28;20461;-81
2021/08/03 17:09:50;;;;;;;4.20;1.77;;;;;;;;;;10338102;28;20050;-81
2021/08/03 17:14:57;;;;;;;4.68;1.90;;;;;;;;;;10336374;28;20034;-81
2021/08/03 17:20:05;;;;;;;2.90;1.55;;;;;;;;;;10325704;28;20038;-82
2021/08/03 17:25:08;;;;;;;1.88;1.60;;;;;;;;;;10337760;28;20034;-80
2021/08/03 17:30:09;;;;;;;1.70;1.60;;;;;;;;;;10350515;28;20027;-80
2021/08/03 17:35:11;;;;;;;2.33;1.70;;;;;;;;;;10336981;28;20038;-80
2021/08/03 17:40:13;;;;;;;1.90;1.55;;;;;;;;;;10336349;28;20034;-80
2021/08/03 17:45:16;;;;;;;2.15;1.65;;;;;;;;;;10336383;28;20037;-79
2021/08/03 17:50:17;;;;;;;2.78;1.70;;;;;;;;;;10335694;28;20045;-79
2021/08/03 17:55:17;;;;;;;2.42;1.48;;;;;;;;;;10335464;28;20117;-79
2021/08/03 18:00:19;;;;;;;2.72;1.60;;;;;;;;;;10335082;28;20058;-79
2021/08/03 18:05:20;;;;;;;2.38;1.55;;;;;;;;;;10334976;28;20038;-79
2021/08/03 18:10:21;;;;;;;1.90;1.35;;;;;;;;;;10334609;28;20400;-79
2021/08/03 18:15:22;;;;;;;3.70;1.63;;;;;;;;;;10338857;28;20378;-80
2021/08/03 18:20:22;;;;;;;1.77;1.52;;;;;;;;;;10361786;28;20026;-79
2021/08/03 18:25:25;;;;;;;3.00;1.52;;;;;;;;;;10362660;28;20041;-79
2021/08/03 18:30:26;;;;;;;3.72;1.80;;;;;;;;;;10356846;28;20453;-79
2021/08/03 18:35:53;;;;;;;1.70;1.52;;;;;;;;;;10358052;28;20117;-79
2021/08/03 18:40:54;;;;;;;3.80;1.83;;;;;;;;;;10359336;28;20052;-79
2021/08/03 18:45:56;;;;;;;2.75;1.75;;;;;;;;;;10357860;28;20033;-79
2021/08/03 18:50:57;;;;;;;4.43;1.80;;;;;;;;;;10353273;28;20383;-79
2021/08/03 18:55:59;;;;;;;2.20;1.77;;;;;;;;;;10355309;28;20046;-79
2021/08/03 19:00:59;;;;;;;3.70;1.70;;;;;;;;;;10333252;28;20035;-79
2021/08/03 19:06:42;;;;;;;3.10;1.90;;;;;;;;;;10330632;28;20061;-81
2021/08/03 19:11:46;;;;;;;3.38;2.10;;;;;;;;;;10331356;28;20038;-81
2021/08/03 19:16:52;;;;;;;6.93;3.38;;;;;;;;;;10341244;28;20104;-81
2021/08/03 19:21:53;;;;;;;5.38;2.72;;;;;;;;;;10362958;28;20126;-81
2021/08/03 19:26:54;;;;;;;6.75;2.95;;;;;;;;;;10363088;28;20482;-81
2021/08/03 19:31:54;;;;;;;4.88;2.58;;;;;;;;;;10362886;28;20040;-82
2021/08/03 19:36:55;;;;;;;14.30;3.90;;;;;;;;;;10344065;28;20084;-81
2021/08/03 19:41:55;;;;;;;8.98;3.00;;;;;;;;;;10364010;28;20571;-81
2021/08/03 19:46:58;;;;;;;9.65;2.75;;;;;;;;;;10360950;28;20109;-81
2021/08/03 19:52:01;;;;;;;5.35;2.65;;;;;;;;;;10362732;28;20030;-81
2021/08/03 19:57:01;;;;;;;5.88;2.92;;;;;;;;;;10345448;28;20026;-81
2021/08/03 20:02:03;;;;;;;5.80;2.85;;;;;;;;;;10332191;28;20396;-81
2021/08/03 20:07:05;;;;;;;8.38;3.33;;;;;;;;;;10332564;28;20049;-81
2021/08/03 20:12:10;;;;;;;5.28;2.42;;;;;;;;;;10333162;28;20037;-81
2021/08/03 20:17:11;;;;;;;5.60;3.22;;;;;;;;;;10338474;28;20100;-81
2021/08/03 20:22:11;;;;;;;6.20;2.58;;;;;;;;;;10337476;28;20507;-81
2021/08/03 20:27:15;;;;;;;5.13;3.10;;;;;;;;;;10339441;28;20030;-81
2021/08/03 20:32:20;;;;;;;6.60;3.03;;;;;;;;;;10339265;28;20058;-81
2021/08/03 20:37:21;;;;;;;4.40;3.03;;;;;;;;;;10338367;28;20033;-81
2021/08/03 20:42:22;;;;;;;10.20;3.33;;;;;;;;;;10337527;28;20476;-82
2021/08/03 20:47:23;;;;;;;7.63;2.75;;;;;;;;;;10338606;28;20125;-82
2021/08/03 20:52:24;;;;;;;5.32;2.83;;;;;;;;;;10350538;28;20039;-81
2021/08/03 20:57:25;;;;;;;9.93;3.07;;;;;;;;;;10337983;28;20030;-81
2021/08/03 21:02:30;;;;;;;5.40;2.58;;;;;;;;;;10338397;28;20467;-81
2021/08/03 21:07:35;;;;;;;8.82;2.53;;;;;;;;;;10338025;28;20061;-81
2021/08/03 21:12:36;;;;;;;7.03;2.78;;;;;;;;;;10337727;28;20034;-81
2021/08/03 21:17:37;;;;;;;6.43;3.22;;;;;;;;;;10335925;28;20072;-81
2021/08/03 21:22:38;;;;;;;8.40;2.75;;;;;;;;;;10337083;28;20037;-81
2021/08/03 21:27:39;;;;;;;5.70;3.13;;;;;;;;;;10336412;28;20536;-81
2021/08/03 21:32:39;;;;;;;7.78;2.67;;;;;;;;;;10336663;28;20456;-81
2021/08/03 21:37:40;;;;;;;6.30;3.03;;;;;;;;;;10337412;28;20038;-82
2021/08/03 21:42:41;;;;;;;9.80;3.42;;;;;;;;;;10336971;28;20034;-81
2021/08/03 21:47:41;;;;;;;4.97;3.13;;;;;;;;;;10336825;28;20040;-81
2021/08/03 21:52:42;;;;;;;5.18;2.97;;;;;;;;;;10339326;28;20452;-81
2021/08/03 21:57:43;;;;;;;8.87;3.70;;;;;;;;;;10348873;28;20397;-81
2021/08/03 22:02:43;;;;;;;7.03;3.05;;;;;;;;;;10333734;28;20030;-81
2021/08/03 22:07:45;;;;;;;5.03;2.83;;;;;;;;;;10332837;28;20042;-81
2021/08/03 22:12:45;;;;;;;4.90;2.88;;;;;;;;;;10334755;28;20029;-82
2021/08/03 22:17:45;;;;;;;3.77;2.50;;;;;;;;;;10331642;28;20026;-82
2021/08/03 22:22:46;;;;;;;3.87;2.43;;;;;;;;;;10333653;28;20495;-82
2021/08/03 22:27:46;;;;;;;7.00;2.43;;;;;;;;;;10334808;28;20209;-81
2021/08/03 22:32:47;;;;;;;2.92;2.15;;;;;;;;;;10334278;28;20504;-81
2021/08/03 22:37:47;;;;;;;3.83;2.45;;;;;;;;;;10334028;28;20027;-81
2021/08/03 22:42:48;;;;;;;4.28;2.40;;;;;;;;;;10327147;28;20030;-83
2021/08/03 22:47:48;;;;;;;4.63;2.60;;;;;;;;;;10332546;28;20037;-83
2021/08/03 22:52:49;;;;;;;6.32;2.50;;;;;;;;;;10331613;28;20089;-81
2021/08/03 22:57:49;;;;;;;6.63;3.13;;;;;;;;;;10328845;28;20022;-82
2021/08/03 23:02:50;;;;;;;8.60;3.13;;;;;;;;;;10331781;28;20065;-81
2021/08/03 23:07:50;;;;;;;4.87;2.87;;;;;;;;;;10332752;28;20185;-82
2021/08/03 23:12:51;;;;;;;7.33;2.60;;;;;;;;;;10333443;28;20045;-81
2021/08/03 23:17:51;;;;;;;9.00;2.67;;;;;;;;;;10333013;28;20022;-81
2021/08/03 23:22:51;;;;;;;9.10;3.40;;;;;;;;;;10333702;28;20448;-81
2021/08/03 23:27:52;;;;;;;5.40;2.00;;;;;;;;;;10333117;28;20031;-81
2021/08/03 23:32:52;;;;;;;5.67;2.23;;;;;;;;;;10335360;28;20502;-81
2021/08/03 23:37:53;;;;;;;4.63;2.20;;;;;;;;;;10333303;28;20035;-82
2021/08/03 23:42:53;;;;;;;2.40;1.93;;;;;;;;;;10346041;28;20876;-84
2021/08/03 23:47:54;;;;;;;5.85;3.25;;;;;;;;;;10335604;28;20459;-83
2021/08/03 23:52:54;;;;;;;3.07;2.33;;;;;;;;;;10340751;28;20026;-83
2021/08/03 23:57:58;;;;;;;3.27;2.33;;;;;;;;;;10365083;28;20452;-83
